Time;durP1;ratioP1;P1;durP2;ratioP2;P2;SDS_P1;SDS_P2;PMS_P1;PMS_P2;Temp;Humidity;BMP_temperature;BMP_pressure;BME280_temperature;BME280_humidity;BME280_pressure;Samples;Min_cycle;Max_cycle;Signal;HPM_P1;HPM_P2
2022/11/12 00:00:18;;;;;;;4.60;3.83;;;7.10;99.90;;;;;;4930030;28;20035;-79
2022/11/12 00:02:43;;;;;;;5.75;3.40;;;7.10;99.90;;;;;;4949630;28;20035;-79
2022/11/12 00:05:09;;;;;;;7.28;4.13;;;7.10;99.90;;;;;;4934732;28;20117;-78
2022/11/12 00:07:34;;;;;;;4.05;3.10;;;7.10;99.90;;;;;;4950229;28;20046;-79
2022/11/12 00:10:00;;;;;;;5.78;3.85;;;7.00;99.90;;;;;;4947183;28;20038;-79
2022/11/12 00:12:25;;;;;;;5.85;3.33;;;7.00;99.90;;;;;;4934992;28;20035;-78
2022/11/12 00:14:51;;;;;;;10.00;3.65;;;7.00;99.90;;;;;;4967142;28;20031;-79
2022/11/12 00:17:16;;;;;;;5.72;3.63;;;7.00;99.90;;;;;;4931685;28;20031;-79
2022/11/12 00:19:42;;;;;;;3.88;2.50;;;7.00;99.90;;;;;;4948579;28;20039;-78
2022/11/12 00:22:08;;;;;;;4.65;3.13;;;7.10;99.90;;;;;;4963040;28;20033;-79
2022/11/12 00:24:33;;;;;;;5.40;3.80;;;7.00;99.90;;;;;;4965638;28;20030;-79
2022/11/12 00:26:59;;;;;;;4.60;3.33;;;6.90;99.90;;;;;;4963368;28;20485;-79
2022/11/12 00:29:24;;;;;;;4.65;3.40;;;6.80;99.90;;;;;;4949467;28;20122;-78
2022/11/12 00:31:50;;;;;;;6.18;3.63;;;6.60;99.90;;;;;;4961408;28;20034;-78
2022/11/12 00:34:15;;;;;;;6.85;3.65;;;6.70;99.90;;;;;;4951643;28;20028;-78
2022/11/12 00:36:41;;;;;;;7.68;3.53;;;6.50;99.90;;;;;;4958092;28;20035;-78
2022/11/12 00:39:06;;;;;;;5.85;3.80;;;6.40;99.90;;;;;;4955833;28;20051;-79
2022/11/12 00:41:32;;;;;;;7.18;3.25;;;6.40;99.90;;;;;;4962330;28;20379;-79
2022/11/12 00:43:57;;;;;;;6.70;3.65;;;6.30;99.90;;;;;;4942418;28;20042;-79
2022/11/12 00:46:23;;;;;;;7.88;3.42;;;6.30;99.90;;;;;;4933371;28;20410;-79
2022/11/12 00:48:48;;;;;;;6.18;4.55;;;6.30;99.90;;;;;;4943467;28;20093;-79
2022/11/12 00:51:14;;;;;;;6.55;4.72;;;6.40;99.90;;;;;;4946909;28;20356;-79
2022/11/12 00:53:40;;;;;;;9.45;5.68;;;6.40;99.90;;;;;;4913930;28;20122;-79
2022/11/12 00:56:06;;;;;;;10.20;5.38;;;6.30;99.90;;;;;;4945662;28;20034;-78
2022/11/12 00:58:32;;;;;;;8.90;5.22;;;6.30;99.90;;;;;;4961122;28;20122;-79
2022/11/12 01:01:06;;;;;;;8.65;4.75;;;6.20;99.90;;;;;;4976769;28;20089;-79
2022/11/12 01:03:32;;;;;;;5.43;4.30;;;6.10;99.90;;;;;;4964340;28;20039;-78
2022/11/12 01:06:02;;;;;;;13.15;5.35;;;6.10;99.90;;;;;;4964916;28;20046;-79
2022/11/12 01:08:29;;;;;;;7.00;4.88;;;6.00;99.90;;;;;;4945989;28;20057;-79
2022/11/12 01:10:54;;;;;;;7.60;4.78;;;6.10;99.90;;;;;;4932980;28;20039;-79
2022/11/12 01:13:20;;;;;;;7.15;5.43;;;6.00;99.90;;;;;;4965150;28;20039;-79
2022/11/12 01:15:45;;;;;;;7.53;4.75;;;5.90;99.90;;;;;;4965044;28;20142;-78
2022/11/12 01:18:11;;;;;;;6.35;4.47;;;5.90;99.90;;;;;;4949436;28;20031;-78
2022/11/12 01:20:38;;;;;;;9.80;5.05;;;5.90;99.90;;;;;;4949682;28;20043;-79
2022/11/12 01:23:04;;;;;;;7.93;5.00;;;5.80;99.90;;;;;;4926680;28;20099;-79
2022/11/12 01:25:29;;;;;;;9.32;5.15;;;5.80;99.90;;;;;;4964592;28;20073;-78
2022/11/12 01:27:55;;;;;;;9.52;4.40;;;5.70;99.90;;;;;;4950113;28;20403;-78
2022/11/12 01:30:20;;;;;;;5.63;4.10;;;5.70;99.90;;;;;;4947896;28;20513;-78
2022/11/12 01:32:47;;;;;;;9.82;4.97;;;5.60;99.90;;;;;;4948632;28;20046;-78
2022/11/12 01:35:12;;;;;;;5.78;3.88;;;5.60;99.90;;;;;;4965514;28;20030;-78
2022/11/12 01:37:38;;;;;;;6.32;4.32;;;5.70;99.90;;;;;;4952173;28;20093;-78
2022/11/12 01:40:04;;;;;;;5.90;3.33;;;5.80;99.90;;;;;;4950113;28;20034;-79
2022/11/12 01:42:30;;;;;;;6.20;3.80;;;5.60;99.90;;;;;;4951457;28;20038;-78
2022/11/12 01:44:56;;;;;;;8.10;4.10;;;5.60;99.90;;;;;;4936589;28;20027;-78
2022/11/12 01:47:32;;;;;;;6.68;3.83;;;5.50;99.90;;;;;;4951993;28;20488;-78
2022/11/12 01:50:06;;;;;;;9.35;4.35;;;5.40;99.90;;;;;;4979129;28;20537;-78
2022/11/12 01:52:44;;;;;;;4.85;3.70;;;5.50;99.90;;;;;;4965107;28;20039;-78
2022/11/12 01:55:14;;;;;;;6.05;3.67;;;5.50;99.90;;;;;;4932920;28;20046;-78
2022/11/12 01:57:52;;;;;;;7.63;4.03;;;5.40;99.90;;;;;;4963070;28;20027;-78
2022/11/12 02:00:19;;;;;;;7.80;5.57;;;5.40;99.90;;;;;;4951971;28;20046;-78
2022/11/12 02:02:46;;;;;;;7.50;4.85;;;5.40;99.90;;;;;;4968898;28;20035;-78
2022/11/12 02:05:12;;;;;;;7.60;4.57;;;5.40;99.90;;;;;;4964277;28;20085;-78
2022/11/12 02:07:39;;;;;;;7.43;4.13;;;5.30;99.90;;;;;;4963479;28;20043;-78
2022/11/12 02:10:05;;;;;;;5.18;4.15;;;5.30;99.90;;;;;;4949335;28;20050;-78
2022/11/12 02:15:15;;;;;;;11.82;4.38;;;5.20;99.90;;;;;;4951866;28;20038;-79
2022/11/12 02:17:40;;;;;;;6.45;3.97;;;5.20;99.90;;;;;;4951436;28;20035;-78
2022/11/12 02:20:15;;;;;;;6.18;4.43;;;5.20;99.90;;;;;;4952142;28;20457;-78
2022/11/12 02:22:40;;;;;;;5.75;4.45;;;5.20;99.90;;;;;;4964914;28;20062;-78
2022/11/12 02:25:08;;;;;;;7.40;3.90;;;5.20;99.90;;;;;;4931379;28;20059;-78
2022/11/12 02:27:33;;;;;;;6.78;4.28;;;5.30;99.90;;;;;;4962469;28;20033;-78
2022/11/12 02:29:59;;;;;;;8.57;5.13;;;5.10;99.90;;;;;;4964198;28;20134;-78
2022/11/12 02:32:24;;;;;;;6.50;4.22;;;5.00;99.90;;;;;;4962917;28;20503;-78
2022/11/12 02:34:50;;;;;;;4.28;3.58;;;4.90;99.90;;;;;;4947638;28;20126;-78
2022/11/12 02:37:15;;;;;;;6.32;4.47;;;4.90;99.90;;;;;;4951569;28;20066;-78
2022/11/12 02:39:41;;;;;;;6.60;4.40;;;4.90;99.90;;;;;;4968775;28;20031;-78
2022/11/12 02:42:06;;;;;;;8.60;4.18;;;4.90;99.90;;;;;;4951553;28;20044;-78
2022/11/12 02:44:32;;;;;;;6.95;4.57;;;4.90;99.90;;;;;;4959339;28;20034;-78
2022/11/12 02:47:00;;;;;;;7.20;4.05;;;4.90;99.90;;;;;;4945334;28;20034;-78
2022/11/12 02:49:25;;;;;;;5.88;4.32;;;4.90;99.90;;;;;;4960662;28;20031;-78
2022/11/12 02:51:51;;;;;;;4.78;3.42;;;4.90;99.90;;;;;;4948331;28;20401;-78
2022/11/12 02:54:16;;;;;;;6.43;4.00;;;4.90;99.90;;;;;;4961224;28;20546;-78
2022/11/12 02:56:42;;;;;;;10.98;3.83;;;4.90;99.90;;;;;;4963185;28;20046;-79
2022/11/12 02:59:07;;;;;;;6.25;3.75;;;4.70;99.90;;;;;;4953616;28;20074;-78
2022/11/12 03:01:33;;;;;;;9.98;4.85;;;4.60;99.90;;;;;;4963921;28;20118;-78
2022/11/12 03:03:59;;;;;;;6.35;3.38;;;4.60;99.90;;;;;;4977641;28;20027;-78
2022/11/12 03:06:24;;;;;;;7.75;4.15;;;4.60;99.90;;;;;;4976002;28;20368;-78
2022/11/12 03:08:50;;;;;;;6.30;3.80;;;4.60;99.90;;;;;;4964995;28;20085;-78
2022/11/12 03:11:16;;;;;;;7.88;4.60;;;4.60;99.90;;;;;;4951849;28;20070;-78
2022/11/12 03:13:43;;;;;;;8.93;4.07;;;4.50;99.90;;;;;;4952909;28;20165;-78
2022/11/12 03:16:08;;;;;;;8.55;4.55;;;4.60;99.90;;;;;;4935457;28;20042;-78
2022/11/12 03:18:34;;;;;;;5.78;3.92;;;4.60;99.90;;;;;;4935996;28;20034;-76
2022/11/12 03:21:00;;;;;;;5.63;3.70;;;4.60;99.90;;;;;;4945121;28;20043;-76
2022/11/12 03:23:25;;;;;;;15.68;5.20;;;4.50;99.90;;;;;;4959974;28;20028;-77
2022/11/12 03:25:51;;;;;;;5.65;4.05;;;4.50;99.90;;;;;;4947760;28;20405;-76
2022/11/12 03:28:17;;;;;;;7.90;4.13;;;4.50;99.90;;;;;;4933829;28;20917;-76
2022/11/12 03:30:42;;;;;;;10.05;4.13;;;4.50;99.90;;;;;;4934209;28;20042;-76
2022/11/12 03:33:10;;;;;;;6.25;3.83;;;4.50;99.90;;;;;;4960714;28;20035;-76
2022/11/12 03:35:36;;;;;;;10.32;4.07;;;4.50;99.90;;;;;;4932469;28;20044;-77
2022/11/12 03:38:01;;;;;;;5.43;3.40;;;4.50;99.90;;;;;;4946083;28;20050;-77
2022/11/12 03:40:27;;;;;;;5.50;3.58;;;4.50;99.90;;;;;;4964555;28;20049;-77
2022/11/12 03:42:53;;;;;;;5.13;3.50;;;4.50;99.90;;;;;;4942766;28;20053;-75
2022/11/12 03:45:19;;;;;;;7.78;3.88;;;4.50;99.90;;;;;;4950780;28;20060;-76
2022/11/12 03:47:46;;;;;;;8.10;3.55;;;4.50;99.90;;;;;;4949469;28;20118;-76
2022/11/12 03:50:12;;;;;;;8.15;4.45;;;4.50;99.90;;;;;;4947272;28;20043;-76
2022/11/12 03:52:38;;;;;;;7.82;4.03;;;4.50;99.90;;;;;;4977766;28;20508;-76
2022/11/12 03:55:04;;;;;;;5.50;4.20;;;4.40;99.90;;;;;;4931788;28;20035;-77
2022/11/12 03:57:30;;;;;;;6.50;4.30;;;4.40;99.90;;;;;;4977207;28;20434;-76
2022/11/12 03:59:55;;;;;;;5.40;4.03;;;4.40;99.90;;;;;;4939202;28;20035;-76
2022/11/12 04:02:21;;;;;;;7.70;4.65;;;4.40;99.90;;;;;;4960609;28;20045;-76
2022/11/12 04:10:15;;;;;;;7.68;4.68;;;4.40;99.90;;;;;;4946712;28;20115;-76
2022/11/12 04:15:25;;;;;;;5.93;4.30;;;4.30;99.90;;;;;;4950228;28;20540;-76
2022/11/12 04:23:19;;;;;;;6.65;4.07;;;4.20;99.90;;;;;;4934809;28;20042;-76
2022/11/12 04:28:28;;;;;;;6.82;4.68;;;4.20;99.90;;;;;;4952597;28;20054;-77
2022/11/12 04:30:56;;;;;;;7.82;4.63;;;4.10;99.90;;;;;;4926457;28;20043;-76
2022/11/12 04:33:21;;;;;;;12.15;4.95;;;4.20;99.90;;;;;;4947070;28;20089;-76
2022/11/12 04:35:47;;;;;;;7.30;4.35;;;4.20;99.90;;;;;;4981102;28;20035;-76
2022/11/12 04:38:12;;;;;;;6.72;4.05;;;4.20;99.90;;;;;;4946662;28;20050;-77
2022/11/12 04:46:06;;;;;;;8.27;3.92;;;4.10;99.90;;;;;;4946396;28;20375;-76
2022/11/12 04:48:32;;;;;;;5.90;4.28;;;4.10;99.90;;;;;;4958945;28;20035;-76
2022/11/12 04:50:59;;;;;;;7.35;4.47;;;4.00;99.90;;;;;;4976669;28;20041;-77
2022/11/12 04:53:25;;;;;;;5.60;3.80;;;4.00;99.90;;;;;;4977521;28;20076;-76
2022/11/12 04:55:51;;;;;;;11.32;4.40;;;4.10;99.90;;;;;;4945393;28;20330;-76
2022/11/12 04:58:17;;;;;;;5.68;4.75;;;4.00;99.90;;;;;;4936083;28;20083;-77
2022/11/12 05:00:42;;;;;;;6.93;4.75;;;4.00;99.90;;;;;;4959017;28;20137;-76
2022/11/12 05:03:08;;;;;;;7.75;4.20;;;4.00;99.90;;;;;;4909582;28;20047;-76
2022/11/12 05:05:35;;;;;;;7.30;4.50;;;4.00;99.90;;;;;;4963999;28;20035;-76
2022/11/12 05:08:01;;;;;;;7.78;4.90;;;4.00;99.90;;;;;;4974507;28;20126;-77
2022/11/12 05:10:26;;;;;;;7.45;5.35;;;3.90;99.90;;;;;;4965198;28;20581;-76
2022/11/12 05:12:52;;;;;;;6.22;4.40;;;3.90;99.90;;;;;;4950872;28;20229;-76
2022/11/12 05:15:17;;;;;;;6.00;4.40;;;3.90;99.90;;;;;;4967232;28;20057;-76
2022/11/12 05:17:43;;;;;;;5.97;4.43;;;4.00;99.90;;;;;;4952208;28;20050;-76
2022/11/12 05:20:10;;;;;;;8.18;4.65;;;3.90;99.90;;;;;;4967021;28;20442;-76
2022/11/12 05:22:35;;;;;;;8.52;5.18;;;3.80;99.90;;;;;;4965535;28;20031;-76
2022/11/12 05:25:01;;;;;;;6.95;4.28;;;3.80;99.90;;;;;;4965721;28;20038;-76
2022/11/12 05:27:27;;;;;;;12.90;5.25;;;3.70;99.90;;;;;;4984085;28;20062;-76
2022/11/12 05:29:52;;;;;;;6.50;4.65;;;3.80;99.90;;;;;;4959611;28;20035;-77
2022/11/12 05:32:18;;;;;;;6.32;4.55;;;3.80;99.90;;;;;;4968196;28;20071;-77
2022/11/12 05:34:43;;;;;;;5.80;3.88;;;3.80;99.90;;;;;;4951330;28;20609;-76
2022/11/12 05:37:10;;;;;;;7.63;5.03;;;3.80;99.90;;;;;;4953781;28;20114;-76
2022/11/12 05:39:36;;;;;;;8.30;4.53;;;3.70;99.90;;;;;;4941344;28;20081;-76
2022/11/12 05:42:01;;;;;;;6.22;3.85;;;3.60;99.90;;;;;;4952632;28;20868;-76
2022/11/12 05:44:27;;;;;;;7.40;4.03;;;3.60;99.90;;;;;;4955978;28;20027;-76
2022/11/12 05:46:53;;;;;;;8.65;4.45;;;3.60;99.90;;;;;;4966178;28;20161;-77
2022/11/12 05:49:18;;;;;;;6.97;4.15;;;3.60;99.90;;;;;;4948625;28;20019;-76
2022/11/12 05:51:44;;;;;;;6.93;3.92;;;3.60;99.90;;;;;;4953483;28;20050;-76
2022/11/12 05:54:09;;;;;;;6.15;3.78;;;3.50;99.90;;;;;;4934444;28;20038;-76
2022/11/12 05:56:35;;;;;;;7.38;4.35;;;3.50;99.90;;;;;;4966797;28;20034;-77
2022/11/12 05:59:02;;;;;;;4.50;4.07;;;3.40;99.90;;;;;;4952921;28;20217;-76
2022/11/12 06:01:27;;;;;;;5.97;4.55;;;3.40;99.90;;;;;;4934904;28;20794;-76
2022/11/12 06:03:53;;;;;;;7.93;4.18;;;3.50;99.90;;;;;;4950693;28;20039;-77
2022/11/12 06:06:18;;;;;;;6.95;4.07;;;3.50;99.90;;;;;;4940389;28;20045;-76
2022/11/12 06:08:44;;;;;;;9.27;4.85;;;3.50;99.90;;;;;;4950377;28;20039;-76
2022/11/12 06:11:10;;;;;;;5.10;3.72;;;3.50;99.90;;;;;;4963826;28;20038;-77
2022/11/12 06:13:35;;;;;;;8.80;4.72;;;3.40;99.90;;;;;;4967436;28;20027;-77
2022/11/12 06:16:01;;;;;;;6.28;4.57;;;3.50;99.90;;;;;;4934976;28;20034;-76
2022/11/12 06:18:26;;;;;;;11.20;4.30;;;3.40;99.90;;;;;;4954640;28;20035;-76
2022/11/12 06:23:36;;;;;;;6.20;4.32;;;3.40;99.90;;;;;;4951222;28;20082;-76
2022/11/12 06:26:02;;;;;;;5.70;4.30;;;3.40;99.90;;;;;;4951375;28;20039;-76
2022/11/12 06:28:27;;;;;;;9.45;4.55;;;3.40;99.90;;;;;;4950098;28;20117;-76
2022/11/12 06:30:53;;;;;;;9.10;5.22;;;3.30;99.90;;;;;;4951792;28;20146;-75
2022/11/12 06:33:18;;;;;;;7.75;4.60;;;3.40;99.90;;;;;;4951177;28;20089;-76
2022/11/12 06:35:44;;;;;;;5.43;4.15;;;3.30;99.90;;;;;;4950399;28;20376;-75
2022/11/12 06:38:09;;;;;;;8.13;4.13;;;3.30;99.90;;;;;;4967517;28;20061;-76
2022/11/12 06:40:35;;;;;;;7.30;4.53;;;3.30;99.90;;;;;;4962944;28;20114;-76
2022/11/12 06:43:00;;;;;;;8.40;4.97;;;3.40;99.90;;;;;;4967118;28;20047;-77
2022/11/12 06:45:26;;;;;;;6.85;4.25;;;3.40;99.90;;;;;;4951979;28;20035;-76
2022/11/12 06:47:51;;;;;;;4.20;3.08;;;3.30;99.90;;;;;;4952208;28;20122;-77
2022/11/12 06:50:17;;;;;;;8.18;3.92;;;3.40;99.90;;;;;;4951172;28;20039;-76
2022/11/12 06:52:43;;;;;;;10.93;5.05;;;3.40;99.90;;;;;;4949945;28;20046;-77
2022/11/12 06:55:08;;;;;;;5.38;3.60;;;3.40;99.90;;;;;;4949128;28;20039;-76
2022/11/12 06:57:34;;;;;;;4.18;3.05;;;3.30;99.90;;;;;;4935234;28;20063;-76
2022/11/12 06:59:59;;;;;;;4.57;3.55;;;3.40;99.90;;;;;;4952190;28;20062;-76
2022/11/12 07:02:25;;;;;;;11.40;4.22;;;3.60;99.90;;;;;;4952093;28;20029;-76
2022/11/12 07:04:51;;;;;;;6.78;4.63;;;3.60;99.90;;;;;;4935430;28;20031;-76
2022/11/12 07:07:16;;;;;;;8.02;4.28;;;3.50;99.90;;;;;;4959446;28;20517;-76
2022/11/12 07:09:42;;;;;;;10.25;5.07;;;3.30;99.90;;;;;;4919046;28;20043;-76
2022/11/12 07:12:07;;;;;;;6.00;3.50;;;3.30;99.90;;;;;;4951395;28;20664;-76
2022/11/12 07:14:33;;;;;;;6.75;4.45;;;3.30;99.90;;;;;;4948316;28;20412;-76
2022/11/12 07:16:59;;;;;;;7.18;5.45;;;3.40;99.90;;;;;;4963168;28;20049;-76
2022/11/12 07:19:24;;;;;;;10.38;6.10;;;3.30;99.90;;;;;;4933763;28;20482;-76
2022/11/12 07:21:50;;;;;;;8.10;4.60;;;3.30;99.90;;;;;;4946528;28;21066;-76
2022/11/12 07:24:15;;;;;;;6.78;4.60;;;3.30;99.90;;;;;;4960661;28;20065;-76
2022/11/12 07:26:41;;;;;;;6.32;3.97;;;3.30;99.90;;;;;;4950928;28;20034;-76
2022/11/12 07:29:06;;;;;;;6.72;3.88;;;3.30;99.90;;;;;;4966056;28;20027;-76
2022/11/12 07:31:32;;;;;;;5.38;4.00;;;3.40;99.90;;;;;;4936146;28;20046;-76
2022/11/12 07:33:57;;;;;;;4.75;3.55;;;3.50;99.90;;;;;;4951822;28;20042;-76
2022/11/12 07:36:23;;;;;;;5.07;3.60;;;3.80;99.90;;;;;;4929021;28;20367;-77
2022/11/12 07:38:52;;;;;;;6.93;4.35;;;3.70;99.90;;;;;;4946568;28;20569;-76
2022/11/12 07:41:22;;;;;;;7.00;4.47;;;3.80;99.90;;;;;;4964273;28;20042;-76
2022/11/12 07:43:49;;;;;;;7.40;4.88;;;3.80;99.90;;;;;;4962082;28;20481;-76
2022/11/12 07:46:16;;;;;;;5.70;3.95;;;4.00;99.90;;;;;;4964929;28;20039;-77
2022/11/12 07:48:43;;;;;;;6.00;4.32;;;4.10;99.90;;;;;;4920506;28;20096;-75
2022/11/12 07:51:13;;;;;;;5.93;3.50;;;4.30;99.90;;;;;;4950210;28;20137;-75
2022/11/12 07:53:39;;;;;;;8.10;4.03;;;4.30;99.90;;;;;;4975480;28;20038;-76
2022/11/12 07:56:05;;;;;;;6.43;4.50;;;4.10;99.90;;;;;;4928308;28;21130;-76
2022/11/12 07:58:31;;;;;;;7.38;3.70;;;4.20;99.90;;;;;;4948337;28;20042;-76
2022/11/12 08:00:57;;;;;;;7.55;4.50;;;4.20;99.90;;;;;;4950444;28;20098;-76
2022/11/12 08:03:22;;;;;;;6.22;3.72;;;4.50;99.90;;;;;;4950747;28;20047;-77
2022/11/12 08:05:49;;;;;;;4.55;2.88;;;4.70;99.90;;;;;;4947077;28;20035;-76
2022/11/12 08:08:14;;;;;;;4.60;3.03;;;5.10;99.90;;;;;;4951650;28;20885;-76
2022/11/12 08:10:40;;;;;;;5.70;3.45;;;5.20;99.90;;;;;;4950212;28;20046;-75
2022/11/12 08:13:05;;;;;;;7.13;4.30;;;5.40;99.90;;;;;;4960945;28;20066;-76
2022/11/12 08:15:31;;;;;;;4.57;3.13;;;5.50;99.90;;;;;;4930138;28;20031;-76
2022/11/12 08:17:57;;;;;;;3.75;2.63;;;5.60;99.90;;;;;;4963253;28;20045;-76
2022/11/12 08:20:22;;;;;;;6.63;4.00;;;5.70;99.90;;;;;;4974965;28;20117;-76
2022/11/12 08:22:48;;;;;;;4.88;3.53;;;5.80;99.90;;;;;;4963272;28;20042;-76
2022/11/12 08:25:14;;;;;;;8.75;4.05;;;5.90;99.90;;;;;;4949096;28;20034;-77
2022/11/12 08:27:39;;;;;;;4.80;3.33;;;6.00;99.90;;;;;;4947855;28;20049;-77
2022/11/12 08:30:06;;;;;;;5.40;4.38;;;6.10;99.90;;;;;;4932825;28;20165;-76
2022/11/12 08:32:31;;;;;;;5.40;3.35;;;6.20;99.90;;;;;;4977582;28;20084;-76
2022/11/12 08:34:57;;;;;;;5.72;4.70;;;6.20;99.90;;;;;;4930609;28;20066;-76
2022/11/12 08:37:22;;;;;;;3.38;2.35;;;6.50;99.90;;;;;;4932842;28;20598;-77
2022/11/12 08:39:48;;;;;;;6.47;4.13;;;6.70;99.90;;;;;;4945393;28;20035;-75
2022/11/12 08:42:13;;;;;;;4.88;3.30;;;7.00;99.90;;;;;;4929788;28;20035;-76
2022/11/12 08:44:39;;;;;;;5.25;3.78;;;7.00;99.90;;;;;;4962747;28;20031;-76
2022/11/12 08:47:04;;;;;;;8.38;4.57;;;7.30;99.90;;;;;;4959758;28;20442;-77
2022/11/12 08:49:30;;;;;;;5.60;3.50;;;7.40;99.90;;;;;;4971028;28;20043;-76
2022/11/12 08:51:56;;;;;;;6.60;3.78;;;7.50;99.90;;;;;;4945545;28;20066;-76
2022/11/12 08:54:22;;;;;;;8.68;6.07;;;7.80;99.90;;;;;;4945584;28;20031;-77
2022/11/12 08:56:47;;;;;;;12.65;6.65;;;7.80;99.90;;;;;;4948073;28;20032;-76
2022/11/12 08:59:13;;;;;;;13.73;6.60;;;7.90;99.90;;;;;;4950026;28;20034;-77
2022/11/12 09:01:38;;;;;;;8.27;6.07;;;8.10;99.90;;;;;;4971118;28;20413;-76
2022/11/12 09:04:04;;;;;;;7.60;3.33;;;8.20;99.90;;;;;;4930782;28;20038;-75
2022/11/12 09:06:30;;;;;;;7.25;3.83;;;8.50;99.90;;;;;;4948407;28;20024;-75
2022/11/12 09:08:55;;;;;;;7.03;3.28;;;8.70;99.90;;;;;;4944740;28;20118;-76
2022/11/12 09:11:22;;;;;;;8.38;6.30;;;8.80;99.90;;;;;;4959185;28;20066;-77
2022/11/12 09:13:47;;;;;;;10.60;6.32;;;8.40;99.90;;;;;;4960271;28;20149;-75
2022/11/12 09:16:13;;;;;;;11.88;8.27;;;8.00;99.90;;;;;;4914401;28;20426;-76
2022/11/12 09:18:38;;;;;;;12.32;8.63;;;7.70;99.90;;;;;;4932682;28;20043;-77
2022/11/12 09:21:11;;;;;;;11.05;7.65;;;7.50;99.90;;;;;;4941782;28;20090;-76
2022/11/12 09:23:37;;;;;;;12.05;8.48;;;7.40;99.90;;;;;;4975535;28;20480;-78
2022/11/12 09:26:03;;;;;;;12.48;7.68;;;7.60;99.90;;;;;;4941448;28;20110;-76
2022/11/12 09:28:29;;;;;;;12.98;7.53;;;7.90;99.90;;;;;;4946632;28;20031;-76
2022/11/12 09:30:56;;;;;;;7.07;4.85;;;8.10;99.90;;;;;;4972161;28;20387;-77
2022/11/12 09:33:26;;;;;;;3.97;3.38;;;9.10;99.90;;;;;;4932083;28;20034;-76
2022/11/12 09:35:52;;;;;;;7.25;6.13;;;9.80;99.90;;;;;;4945855;28;20098;-78
2022/11/12 09:38:18;;;;;;;7.35;6.10;;;10.20;99.90;;;;;;4960112;28;20449;-77
2022/11/12 09:40:49;;;;;;;7.22;4.20;;;10.60;99.90;;;;;;4945506;28;20491;-77
2022/11/12 09:43:33;;;;;;;6.18;3.92;;;10.90;99.90;;;;;;4946482;28;20042;-77
2022/11/12 09:46:06;;;;;;;6.28;4.10;;;11.30;99.90;;;;;;4961046;28;20033;-75
2022/11/12 09:48:34;;;;;;;9.02;4.03;;;11.50;99.90;;;;;;4975150;28;20056;-77
2022/11/12 09:51:03;;;;;;;5.95;3.72;;;11.40;99.90;;;;;;4963807;28;20061;-78
2022/11/12 09:53:48;;;;;;;6.95;5.10;;;11.60;99.90;;;;;;4959814;28;20082;-77
2022/11/12 09:56:13;;;;;;;7.43;5.18;;;11.80;99.90;;;;;;4928854;28;20058;-76
2022/11/12 09:58:39;;;;;;;7.85;5.05;;;11.60;99.90;;;;;;4933490;28;20047;-77
2022/11/12 10:01:20;;;;;;;11.07;5.45;;;11.90;99.90;;;;;;4943614;28;20055;-78
2022/11/12 10:04:04;;;;;;;7.78;5.03;;;11.40;99.90;;;;;;4961530;28;20085;-75
2022/11/12 10:06:34;;;;;;;8.27;5.10;;;11.50;99.90;;;;;;4963246;28;20513;-77
2022/11/12 10:09:07;;;;;;;7.38;4.90;;;11.40;99.90;;;;;;4943913;28;20470;-76
2022/11/12 10:12:30;;;;;;;9.23;4.72;;;11.50;99.90;;;;;;4963462;28;20150;-77
2022/11/12 10:16:41;;;;;;;6.35;4.38;;;11.20;99.90;;;;;;4962916;28;20106;-76
2022/11/12 10:18:11;;;;;;;7.25;3.40;;;11.30;99.90;;;;;;4938650;28;20031;-76
2022/11/12 10:20:50;;;;;;;5.30;4.00;;;11.60;99.90;;;;;;4926291;28;20046;-77
2022/11/12 10:23:17;;;;;;;6.30;3.55;;;11.90;99.90;;;;;;4945769;28;20502;-77
2022/11/12 10:25:44;;;;;;;5.68;3.22;;;12.00;99.90;;;;;;4965148;28;20100;-77
2022/11/12 10:28:24;;;;;;;4.90;3.33;;;12.30;99.90;;;;;;4932846;28;20121;-77
2022/11/12 10:30:50;;;;;;;4.63;3.20;;;12.20;99.90;;;;;;4960751;28;20042;-77
2022/11/12 10:33:15;;;;;;;3.15;2.72;;;13.10;99.90;;;;;;4949893;28;20548;-78
2022/11/12 10:35:41;;;;;;;3.25;2.70;;;14.20;99.90;;;;;;4966783;28;20129;-78
2022/11/12 10:38:11;;;;;;;5.47;2.67;;;14.80;99.90;;;;;;4968684;28;20034;-77
2022/11/12 10:40:38;;;;;;;3.58;2.80;;;15.10;99.90;;;;;;4949620;28;20038;-78
2022/11/12 10:43:14;;;;;;;3.45;2.38;;;15.30;99.90;;;;;;4946312;28;20030;-77
2022/11/12 10:45:39;;;;;;;3.97;2.00;;;15.50;99.90;;;;;;4965708;28;20332;-77
2022/11/12 10:48:29;;;;;;;3.83;2.00;;;14.50;99.90;;;;;;4945421;28;20062;-77
2022/11/12 10:50:56;;;;;;;3.67;2.30;;;13.90;99.90;;;;;;4950717;28;20062;-77
2022/11/12 10:53:34;;;;;;;3.30;2.15;;;13.10;99.90;;;;;;4962971;28;20055;-77
2022/11/12 10:56:02;;;;;;;3.42;2.05;;;12.90;99.90;;;;;;4963180;28;20113;-77
2022/11/12 10:58:28;;;;;;;2.75;2.22;;;12.60;99.90;;;;;;4933302;28;20031;-77
2022/11/12 11:01:04;;;;;;;4.85;2.30;;;13.10;99.90;;;;;;4964217;28;20041;-77
2022/11/12 11:03:34;;;;;;;2.58;1.83;;;13.90;99.90;;;;;;4916854;28;20806;-77
2022/11/12 11:06:12;;;;;;;3.45;1.90;;;14.60;99.90;;;;;;4960280;28;20038;-77
2022/11/12 11:08:48;;;;;;;5.15;2.22;;;15.10;99.90;;;;;;4939598;28;20043;-78
2022/11/12 11:11:13;;;;;;;3.20;2.45;;;15.70;99.90;;;;;;4927819;28;20038;-77
2022/11/12 11:13:39;;;;;;;2.17;1.67;;;16.20;99.90;;;;;;4949568;28;20061;-78
2022/11/12 11:16:06;;;;;;;3.35;1.35;;;16.40;99.90;;;;;;4943321;28;20023;-78
2022/11/12 11:18:35;;;;;;;6.45;4.75;;;15.80;99.90;;;;;;4949647;28;20043;-78
2022/11/12 11:21:20;;;;;;;13.02;5.13;;;14.30;99.90;;;;;;4965009;28;20477;-77
2022/11/12 11:23:51;;;;;;;8.20;4.05;;;13.90;99.90;;;;;;4961906;28;20153;-78
2022/11/12 11:26:36;;;;;;;7.90;3.60;;;14.90;99.90;;;;;;4937489;28;20111;-77
2022/11/12 11:29:25;;;;;;;6.03;3.55;;;15.50;99.90;;;;;;4945274;28;20046;-78
2022/11/12 11:32:27;;;;;;;6.25;3.10;;;16.00;99.90;;;;;;4949816;28;20222;-79
2022/11/12 11:35:01;;;;;;;4.30;2.90;;;16.50;99.90;;;;;;4932076;28;20043;-75
2022/11/12 11:37:30;;;;;;;4.35;2.78;;;16.80;99.90;;;;;;4948122;28;20397;-77
2022/11/12 11:40:07;;;;;;;3.92;2.83;;;16.60;99.90;;;;;;4965550;28;20434;-77
2022/11/12 11:42:51;;;;;;;8.77;2.78;;;17.10;99.90;;;;;;4959634;28;20034;-79
2022/11/12 11:45:35;;;;;;;3.10;2.40;;;17.30;99.90;;;;;;4947089;28;20146;-77
2022/11/12 11:48:07;;;;;;;3.33;2.63;;;17.50;99.90;;;;;;4943105;28;20030;-79
2022/11/12 11:50:33;;;;;;;8.98;3.38;;;17.50;99.90;;;;;;4936833;28;20140;-78
2022/11/12 11:53:07;;;;;;;6.90;4.50;;;17.20;99.90;;;;;;4948721;28;20059;-76
2022/11/12 11:55:51;;;;;;;6.50;4.90;;;16.40;99.90;;;;;;4955472;28;20089;-76
2022/11/12 11:58:36;;;;;;;6.03;4.60;;;16.00;99.90;;;;;;4950435;28;20023;-76
2022/11/12 12:01:16;;;;;;;4.53;3.45;;;15.20;99.90;;;;;;4957428;28;20027;-76
2022/11/12 12:03:59;;;;;;;7.38;4.38;;;16.40;99.90;;;;;;4946861;28;20031;-76
2022/11/12 12:06:28;;;;;;;7.55;5.82;;;17.20;99.90;;;;;;4962022;28;20073;-77
2022/11/12 12:09:12;;;;;;;8.00;4.72;;;16.50;99.90;;;;;;4959662;28;20043;-77
2022/11/12 12:11:51;;;;;;;7.88;5.20;;;16.60;99.90;;;;;;4928304;28;20043;-77
2022/11/12 12:14:23;;;;;;;6.47;4.68;;;17.20;99.90;;;;;;4944331;28;20082;-77
2022/11/12 12:16:55;;;;;;;5.30;4.20;;;17.40;99.90;;;;;;4972287;28;20118;-77
2022/11/12 12:19:35;;;;;;;4.57;2.72;;;17.80;99.90;;;;;;4944464;28;20035;-77
2022/11/12 12:22:10;;;;;;;6.35;3.33;;;17.80;99.90;;;;;;4958533;28;20069;-77
2022/11/12 12:24:57;;;;;;;4.80;3.50;;;18.10;99.90;;;;;;4960039;28;20058;-78
2022/11/12 12:27:29;;;;;;;5.10;3.40;;;18.10;99.90;;;;;;4946319;28;20516;-78
2022/11/12 12:29:59;;;;;;;7.63;4.60;;;18.40;99.90;;;;;;4273681;28;10000200;-78
2022/11/12 12:32:35;;;;;;;7.63;4.85;;;18.30;99.90;;;;;;4620228;28;10000323;-78
2022/11/12 12:35:18;;;;;;;8.63;4.80;;;17.50;99.90;;;;;;4922661;28;20049;-78
2022/11/12 12:38:13;;;;;;;6.95;4.10;;;18.00;99.90;;;;;;4943497;28;20050;-78
2022/11/12 12:41:00;;;;;;;6.60;3.67;;;18.40;99.90;;;;;;4945309;28;20061;-79
2022/11/12 12:43:46;;;;;;;10.63;4.60;;;18.40;99.90;;;;;;4958689;28;20027;-79
2022/11/12 12:46:12;;;;;;;4.80;3.93;;;18.50;99.90;;;;;;4934658;28;20168;-78
2022/11/12 12:48:40;;;;;;;4.25;3.42;;;18.60;99.90;;;;;;4942490;28;20039;-79
2022/11/12 12:51:06;;;;;;;5.78;3.35;;;18.60;99.90;;;;;;4930664;28;20386;-79
2022/11/12 12:53:33;;;;;;;6.30;3.55;;;18.90;99.90;;;;;;4943590;28;20035;-79
2022/11/12 12:56:06;;;;;;;5.80;3.58;;;19.00;99.90;;;;;;4958170;28;20540;-79
2022/11/12 12:58:33;;;;;;;6.38;3.50;;;19.20;99.90;;;;;;4944844;28;20031;-79
2022/11/12 13:01:06;;;;;;;8.98;4.32;;;19.40;99.90;;;;;;4971596;28;20070;-79
2022/11/12 13:03:50;;;;;;;7.20;3.50;;;19.50;99.90;;;;;;4952239;28;20035;-79
2022/11/12 13:06:22;;;;;;;5.75;3.83;;;19.50;99.90;;;;;;4955929;28;20039;-79
2022/11/12 13:08:57;;;;;;;5.20;3.38;;;19.60;99.90;;;;;;4964324;28;20777;-79
2022/11/12 13:14:34;;;;;;;4.38;3.42;;;19.70;99.90;;;;;;4957857;28;20081;-83
2022/11/12 13:17:06;;;;;;;10.55;3.72;;;19.70;99.90;;;;;;4957975;28;20076;-82
2022/11/12 13:19:37;;;;;;;10.63;4.38;;;19.60;99.90;;;;;;4965406;28;20081;-81
2022/11/12 13:22:17;;;;;;;5.30;2.90;;;19.70;99.90;;;;;;4947476;28;20046;-82
2022/11/12 13:25:03;;;;;;;9.93;4.40;;;19.60;99.90;;;;;;4946900;28;20063;-82
2022/11/12 13:27:43;;;;;;;2.95;2.63;;;19.60;99.90;;;;;;4927751;28;20034;-82
2022/11/12 13:30:17;;;;;;;5.07;2.90;;;19.80;99.90;;;;;;4959854;28;20034;-83